createdAt,value
2018-12-23T00:00:12.203Z,99.99
2018-12-23T00:01:12.196Z,99.99
2018-12-23T00:02:12.181Z,99.99
2018-12-23T00:03:12.169Z,99.99
2018-12-23T00:04:12.171Z,99.88
2018-12-23T00:05:12.170Z,99.99
2018-12-23T00:06:12.139Z,99.99
2018-12-23T00:07:12.131Z,99.78
2018-12-23T00:08:12.118Z,99.99
2018-12-23T00:09:12.104Z,99.82
2018-12-23T00:10:12.092Z,99.99
2018-12-23T00:11:12.086Z,99.99
2018-12-23T00:12:12.077Z,99.99
2018-12-23T00:13:12.065Z,99.99
2018-12-23T00:14:12.053Z,99.99
2018-12-23T00:15:12.038Z,99.99
2018-12-23T00:16:12.034Z,99.99
2018-12-23T00:17:12.016Z,99.99
2018-12-23T00:18:12.017Z,99.99
2018-12-23T00:19:11.993Z,99.99
2018-12-23T00:20:11.999Z,99.99
2018-12-23T00:21:11.979Z,99.99
2018-12-23T00:22:11.965Z,99.99
2018-12-23T00:23:11.955Z,99.99
2018-12-23T00:24:11.941Z,99.99
2018-12-23T00:25:11.936Z,99.99
2018-12-23T00:26:11.918Z,99.99
2018-12-23T00:27:11.912Z,99.99
2018-12-23T00:28:11.916Z,99.99
2018-12-23T00:29:11.891Z,99.99
2018-12-23T00:30:11.987Z,99.99
2018-12-23T00:31:11.875Z,99.99
2018-12-23T00:32:11.865Z,99.99
2018-12-23T00:33:11.838Z,99.99
2018-12-23T00:34:11.832Z,99.99
2018-12-23T00:35:20.043Z,99.99
2018-12-23T00:36:12.817Z,99.99
2018-12-23T00:37:11.797Z,99.99
2018-12-23T00:38:11.792Z,99.99
2018-12-23T00:39:11.778Z,99.99
2018-12-23T00:40:11.769Z,99.99
2018-12-23T00:41:11.770Z,99.99
2018-12-23T00:42:11.755Z,99.99
2018-12-23T00:43:11.739Z,99.99
2018-12-23T00:44:11.727Z,99.99
2018-12-23T00:45:11.709Z,99.99
2018-12-23T00:46:11.705Z,99.99
2018-12-23T00:47:11.698Z,99.99
2018-12-23T00:48:11.676Z,99.99
2018-12-23T00:49:11.671Z,99.99
2018-12-23T00:50:11.659Z,99.99
2018-12-23T00:51:11.643Z,99.99
2018-12-23T00:52:11.635Z,99.99
2018-12-23T00:53:11.627Z,99.99
2018-12-23T00:54:11.630Z,99.99
2018-12-23T00:55:11.605Z,99.99
2018-12-23T00:56:11.598Z,99.99
2018-12-23T00:57:11.585Z,99.99
2018-12-23T00:58:11.577Z,99.99
2018-12-23T00:59:11.582Z,99.99
2018-12-23T01:00:11.557Z,99.99
2018-12-23T01:01:11.543Z,99.99
2018-12-23T01:02:11.535Z,99.99
2018-12-23T01:03:11.516Z,99.99
2018-12-23T01:04:11.534Z,99.99
2018-12-23T01:05:11.501Z,99.99
2018-12-23T01:06:11.490Z,99.99
2018-12-23T01:07:11.473Z,99.99
2018-12-23T01:08:11.464Z,99.99
2018-12-23T01:09:11.450Z,99.99
2018-12-23T01:10:11.444Z,99.99
2018-12-23T01:11:11.433Z,99.99
2018-12-23T01:12:11.421Z,99.99
2018-12-23T01:13:11.414Z,99.99
2018-12-23T01:14:11.395Z,99.99
2018-12-23T01:15:11.391Z,99.99
2018-12-23T01:16:11.377Z,99.99
2018-12-23T01:17:11.370Z,99.99
2018-12-23T01:18:11.356Z,99.99
2018-12-23T01:19:11.342Z,99.99
2018-12-23T01:20:11.339Z,99.99
2018-12-23T01:21:11.326Z,99.99
2018-12-23T01:22:11.316Z,99.99
2018-12-23T01:23:11.307Z,99.99
2018-12-23T01:24:11.289Z,99.99
2018-12-23T01:25:11.276Z,99.99
2018-12-23T01:26:11.267Z,99.99
2018-12-23T01:27:11.280Z,99.99
2018-12-23T01:28:11.246Z,99.99
2018-12-23T01:29:11.237Z,99.99
2018-12-23T01:30:11.223Z,99.99
2018-12-23T01:31:11.213Z,99.99
2018-12-23T01:32:11.205Z,99.99
2018-12-23T01:33:11.199Z,99.99
2018-12-23T01:34:11.216Z,99.99
2018-12-23T01:35:11.174Z,99.99
2018-12-23T01:36:11.157Z,99.99
2018-12-23T01:37:11.149Z,99.99
2018-12-23T01:38:11.141Z,99.99
2018-12-23T01:39:11.129Z,99.99
2018-12-23T01:40:11.130Z,99.99
2018-12-23T01:41:11.111Z,99.99
2018-12-23T01:42:11.095Z,99.99
2018-12-23T01:43:11.089Z,99.99
2018-12-23T01:44:11.075Z,99.99
2018-12-23T01:45:11.060Z,99.99
2018-12-23T01:46:11.047Z,99.99
2018-12-23T01:47:11.143Z,99.99
2018-12-23T01:48:11.040Z,99.99
2018-12-23T01:49:11.021Z,99.99
2018-12-23T01:50:11.011Z,99.99
2018-12-23T01:51:11.001Z,99.99
2018-12-23T01:52:10.994Z,99.99
2018-12-23T01:53:10.991Z,99.99
2018-12-23T01:54:10.964Z,99.99
2018-12-23T01:55:10.957Z,99.99
2018-12-23T01:56:10.949Z,99.99
2018-12-23T01:57:10.933Z,99.99
2018-12-23T01:58:10.922Z,99.99
2018-12-23T01:59:10.915Z,99.99
2018-12-23T02:00:10.906Z,99.99
2018-12-23T02:01:10.890Z,99.99
2018-12-23T02:02:10.875Z,99.99
2018-12-23T02:03:10.889Z,99.99
2018-12-23T02:04:10.857Z,99.99
2018-12-23T02:05:10.845Z,99.99
2018-12-23T02:06:10.838Z,99.99
2018-12-23T02:07:10.830Z,99.99
2018-12-23T02:08:10.813Z,99.99
2018-12-23T02:09:10.807Z,99.99
2018-12-23T02:10:10.801Z,99.99
2018-12-23T02:11:10.787Z,99.99
2018-12-23T02:12:10.773Z,99.99
2018-12-23T02:13:10.765Z,99.99
2018-12-23T02:14:10.753Z,99.99
2018-12-23T02:15:10.734Z,99.99
2018-12-23T02:16:10.742Z,99.99
2018-12-23T02:17:10.719Z,99.99
2018-12-23T02:18:10.703Z,99.99
2018-12-23T02:19:10.702Z,99.99
2018-12-23T02:20:10.681Z,99.99
2018-12-23T02:21:10.691Z,99.99
2018-12-23T02:22:10.666Z,99.99
2018-12-23T02:23:10.654Z,99.99
2018-12-23T02:24:10.644Z,99.99
2018-12-23T02:25:10.630Z,99.99
2018-12-23T02:26:10.618Z,99.99
2018-12-23T02:27:10.603Z,99.99
2018-12-23T02:28:10.594Z,99.99
2018-12-23T02:29:10.591Z,99.99
2018-12-23T02:30:10.575Z,99.99
2018-12-23T02:31:10.566Z,99.99
2018-12-23T02:32:10.557Z,99.99
2018-12-23T02:33:10.547Z,99.99
2018-12-23T02:34:10.532Z,99.99
2018-12-23T02:35:10.526Z,99.99
2018-12-23T02:36:10.508Z,99.99
2018-12-23T02:37:10.501Z,99.99
2018-12-23T02:38:10.494Z,99.99
2018-12-23T02:39:10.478Z,99.99
2018-12-23T02:40:10.462Z,99.99
2018-12-23T02:41:10.456Z,99.99
2018-12-23T02:42:10.448Z,99.99
2018-12-23T02:43:10.432Z,99.99
2018-12-23T02:44:10.436Z,99.99
2018-12-23T02:45:10.417Z,99.99
2018-12-23T02:46:10.403Z,99.99
2018-12-23T02:47:10.393Z,99.99
2018-12-23T02:48:10.379Z,99.99
2018-12-23T02:49:10.369Z,99.99
2018-12-23T02:50:10.358Z,99.99
2018-12-23T02:51:10.349Z,99.99
2018-12-23T02:52:10.333Z,99.99
2018-12-23T02:53:10.335Z,99.99
2018-12-23T02:54:10.313Z,99.99
2018-12-23T02:55:10.303Z,99.99
2018-12-23T02:56:10.302Z,99.99
2018-12-23T02:57:10.297Z,99.99
2018-12-23T02:58:10.269Z,99.99
2018-12-23T02:59:10.263Z,99.99
2018-12-23T03:00:10.251Z,99.99
2018-12-23T03:01:10.243Z,99.99
2018-12-23T03:02:10.253Z,99.99
2018-12-23T03:03:10.215Z,99.99
2018-12-23T03:04:10.212Z,99.99
2018-12-23T03:05:10.203Z,99.99
2018-12-23T03:06:10.192Z,99.99
2018-12-23T03:07:10.179Z,99.99
2018-12-23T03:08:10.165Z,99.99
2018-12-23T03:09:10.152Z,99.99
2018-12-23T03:10:10.137Z,99.99
2018-12-23T03:11:10.134Z,99.99
2018-12-23T03:12:10.124Z,99.99
2018-12-23T03:13:10.113Z,99.99
2018-12-23T03:14:10.099Z,99.99
2018-12-23T03:15:10.105Z,99.99
2018-12-23T03:16:10.077Z,99.99
2018-12-23T03:17:10.071Z,99.99
2018-12-23T03:18:10.061Z,99.99
2018-12-23T03:19:10.047Z,99.99
2018-12-23T03:20:10.050Z,99.99
2018-12-23T03:21:10.028Z,99.99
2018-12-23T03:22:10.013Z,99.99
2018-12-23T03:23:10.005Z,99.99
2018-12-23T03:24:09.997Z,99.99
2018-12-23T03:25:09.984Z,99.99
2018-12-23T03:26:09.974Z,99.99
2018-12-23T03:27:09.963Z,99.99
2018-12-23T03:28:09.952Z,99.99
2018-12-23T03:29:09.939Z,99.99
2018-12-23T03:30:09.932Z,99.99
2018-12-23T03:31:09.921Z,99.99
2018-12-23T03:32:09.910Z,99.99
2018-12-23T03:33:09.902Z,99.99
2018-12-23T03:34:09.887Z,99.99
2018-12-23T03:35:09.873Z,99.99
2018-12-23T03:36:14.978Z,99.99
2018-12-23T03:37:10.856Z,99.99
2018-12-23T03:38:09.858Z,99.99
2018-12-23T03:39:09.828Z,99.99
2018-12-23T03:40:09.821Z,99.99
2018-12-23T03:41:09.808Z,99.99
2018-12-23T03:42:09.797Z,99.99
2018-12-23T03:43:09.790Z,99.99
2018-12-23T03:44:09.785Z,99.99
2018-12-23T03:45:09.776Z,99.99
2018-12-23T03:46:09.754Z,99.99
2018-12-23T03:47:09.741Z,99.99
2018-12-23T03:48:09.733Z,99.99
2018-12-23T03:49:09.724Z,99.99
2018-12-23T03:50:09.711Z,99.99
2018-12-23T03:51:09.718Z,99.99
2018-12-23T03:52:09.696Z,99.99
2018-12-23T03:53:09.682Z,99.99
2018-12-23T03:54:09.667Z,99.99
2018-12-23T03:55:09.664Z,99.99
2018-12-23T03:56:09.648Z,99.99
2018-12-23T03:57:09.642Z,99.99
2018-12-23T03:58:09.628Z,99.99
2018-12-23T03:59:09.618Z,99.99
2018-12-23T04:00:10.888Z,99.99
2018-12-23T04:01:09.613Z,99.99
2018-12-23T04:02:09.580Z,99.99
2018-12-23T04:03:09.565Z,99.99
2018-12-23T04:04:09.562Z,99.99
2018-12-23T04:05:09.549Z,99.99
2018-12-23T04:06:09.538Z,99.99
2018-12-23T04:07:09.524Z,99.99
2018-12-23T04:08:09.513Z,99.99
2018-12-23T04:09:09.512Z,99.99
2018-12-23T04:10:09.496Z,99.99
2018-12-23T04:11:09.484Z,99.99
2018-12-23T04:12:09.477Z,99.99
2018-12-23T04:13:09.464Z,99.99
2018-12-23T04:14:09.460Z,99.99
2018-12-23T04:15:09.442Z,99.99
2018-12-23T04:16:09.436Z,99.99
2018-12-23T04:17:09.424Z,99.99
2018-12-23T04:18:09.412Z,99.99
2018-12-23T04:19:09.404Z,99.99
2018-12-23T04:20:09.388Z,99.99
2018-12-23T04:21:09.377Z,99.99
2018-12-23T04:22:09.374Z,99.99
2018-12-23T04:23:09.358Z,99.99
2018-12-23T04:24:09.376Z,99.99
2018-12-23T04:25:09.337Z,99.99
2018-12-23T04:26:09.327Z,99.99
2018-12-23T04:27:09.329Z,99.99
2018-12-23T04:28:09.310Z,99.99
2018-12-23T04:29:09.294Z,99.99
2018-12-23T04:30:09.290Z,99.99
2018-12-23T04:31:09.273Z,99.99
2018-12-23T04:32:09.273Z,99.99
2018-12-23T04:33:09.256Z,99.99
2018-12-23T04:34:09.240Z,99.99
2018-12-23T04:35:09.224Z,99.99
2018-12-23T04:36:09.219Z,99.99
2018-12-23T04:37:09.221Z,99.99
2018-12-23T04:38:09.194Z,99.99
2018-12-23T04:39:09.191Z,99.99
2018-12-23T04:40:09.182Z,99.99
2018-12-23T04:41:09.169Z,99.99
2018-12-23T04:42:09.153Z,99.99
2018-12-23T04:43:09.147Z,99.99
2018-12-23T04:44:09.135Z,99.99
2018-12-23T04:45:09.124Z,99.99
2018-12-23T04:46:09.120Z,99.99
2018-12-23T04:47:09.101Z,99.99
2018-12-23T04:48:09.092Z,99.99
2018-12-23T04:49:09.080Z,99.99
2018-12-23T04:50:09.068Z,99.99
2018-12-23T04:51:09.055Z,99.99
2018-12-23T04:52:09.047Z,99.99
2018-12-23T04:53:09.032Z,99.99
2018-12-23T04:54:09.024Z,99.99
2018-12-23T04:55:09.018Z,99.99
2018-12-23T04:56:09.002Z,99.99
2018-12-23T04:57:09.011Z,99.99
2018-12-23T04:58:08.981Z,99.99
2018-12-23T04:59:08.971Z,99.99
2018-12-23T05:00:08.986Z,99.99
2018-12-23T05:01:08.953Z,99.99
2018-12-23T05:02:08.943Z,99.99
2018-12-23T05:03:08.929Z,99.99
2018-12-23T05:04:08.927Z,99.99
2018-12-23T05:05:08.909Z,99.99
2018-12-23T05:06:08.894Z,99.99
2018-12-23T05:07:08.885Z,99.99
2018-12-23T05:08:08.881Z,99.99
2018-12-23T05:09:08.870Z,99.99
2018-12-23T05:10:08.887Z,99.99
2018-12-23T05:11:08.842Z,99.99
2018-12-23T05:12:08.838Z,99.99
2018-12-23T05:13:08.844Z,99.99
2018-12-23T05:14:08.807Z,99.99
2018-12-23T05:15:08.794Z,99.99
2018-12-23T05:16:08.788Z,99.99
2018-12-23T05:17:08.772Z,99.99
2018-12-23T05:18:08.762Z,99.99
2018-12-23T05:19:08.753Z,99.99
2018-12-23T05:20:08.737Z,99.99
2018-12-23T05:21:08.733Z,99.99
2018-12-23T05:22:08.720Z,99.99
2018-12-23T05:23:08.728Z,99.99
2018-12-23T05:24:08.711Z,99.99
2018-12-23T05:25:08.686Z,99.99
2018-12-23T05:26:08.679Z,99.99
2018-12-23T05:27:08.671Z,99.99
2018-12-23T05:28:08.653Z,99.99
2018-12-23T05:29:08.642Z,99.99
2018-12-23T05:30:08.645Z,99.99
2018-12-23T05:31:08.621Z,99.99
2018-12-23T05:32:08.613Z,99.99
2018-12-23T05:33:08.603Z,99.99
2018-12-23T05:34:08.594Z,99.99
2018-12-23T05:35:08.586Z,99.99
2018-12-23T05:36:08.585Z,99.99
2018-12-23T05:37:08.555Z,99.99
2018-12-23T05:38:08.546Z,99.99
2018-12-23T05:39:08.550Z,99.99
2018-12-23T05:40:08.527Z,99.99
2018-12-23T05:41:08.521Z,99.99
2018-12-23T05:42:08.507Z,99.99
2018-12-23T05:43:08.493Z,99.99
2018-12-23T05:44:08.481Z,99.99
2018-12-23T05:45:08.468Z,99.99
2018-12-23T05:46:08.458Z,99.99
2018-12-23T05:47:08.450Z,99.99
2018-12-23T05:48:08.439Z,99.99
2018-12-23T05:49:08.440Z,99.99
2018-12-23T05:50:08.418Z,99.99
2018-12-23T05:51:08.408Z,99.99
2018-12-23T05:52:08.396Z,99.99
2018-12-23T05:53:08.394Z,99.99
2018-12-23T05:54:08.372Z,99.99
2018-12-23T05:55:08.363Z,99.99
2018-12-23T05:56:08.350Z,99.99
2018-12-23T05:57:08.349Z,99.99
2018-12-23T05:58:08.328Z,99.99
2018-12-23T05:59:08.318Z,99.99
2018-12-23T06:00:08.310Z,99.99
2018-12-23T06:01:08.299Z,99.99
2018-12-23T06:02:08.289Z,99.99
2018-12-23T06:03:08.278Z,99.99
2018-12-23T06:04:08.278Z,99.99
2018-12-23T06:05:08.293Z,99.99
2018-12-23T06:06:08.252Z,99.99
2018-12-23T06:07:08.237Z,99.99
2018-12-23T06:08:08.225Z,99.99
2018-12-23T06:09:08.226Z,99.99
2018-12-23T06:10:08.198Z,99.99
2018-12-23T06:11:08.190Z,99.99
2018-12-23T06:12:08.203Z,99.99
2018-12-23T06:13:08.169Z,99.99
2018-12-23T06:14:08.209Z,99.99
2018-12-23T06:15:08.147Z,99.99
2018-12-23T06:16:08.137Z,99.99
2018-12-23T06:17:08.130Z,99.99
2018-12-23T06:18:08.108Z,99.99
2018-12-23T06:19:08.102Z,99.99
2018-12-23T06:20:08.092Z,99.99
2018-12-23T06:21:08.076Z,99.99
2018-12-23T06:22:08.075Z,99.99
2018-12-23T06:23:08.061Z,99.99
2018-12-23T06:24:08.050Z,99.99
2018-12-23T06:25:08.039Z,99.99
2018-12-23T06:26:08.030Z,99.99
2018-12-23T06:27:08.020Z,99.99
2018-12-23T06:28:08.002Z,99.99
2018-12-23T06:29:07.996Z,99.99
2018-12-23T06:30:07.984Z,99.99
2018-12-23T06:31:07.976Z,99.99
2018-12-23T06:32:07.960Z,99.99
2018-12-23T06:33:07.956Z,99.99
2018-12-23T06:34:07.938Z,99.99
2018-12-23T06:35:07.946Z,99.99
2018-12-23T06:36:07.918Z,99.99
2018-12-23T06:37:10.318Z,99.99
2018-12-23T06:38:07.900Z,99.99
2018-12-23T06:39:07.888Z,99.99
2018-12-23T06:40:07.898Z,99.99
2018-12-23T06:41:07.862Z,99.99
2018-12-23T06:42:07.862Z,99.99
2018-12-23T06:43:07.848Z,99.99
2018-12-23T06:44:07.834Z,99.99
2018-12-23T06:45:07.818Z,99.99
2018-12-23T06:46:07.818Z,99.99
2018-12-23T06:47:07.804Z,99.99
2018-12-23T06:48:07.795Z,99.99
2018-12-23T06:49:07.784Z,99.99
2018-12-23T06:50:07.770Z,99.99
2018-12-23T06:51:07.762Z,99.99
2018-12-23T06:52:07.750Z,99.99
2018-12-23T06:53:07.742Z,99.99
2018-12-23T06:54:07.726Z,99.99
2018-12-23T06:55:07.719Z,99.99
2018-12-23T06:56:07.707Z,99.99
2018-12-23T06:57:07.698Z,99.99
2018-12-23T06:58:07.708Z,99.99
2018-12-23T06:59:07.678Z,99.99
2018-12-23T07:00:07.662Z,99.99
2018-12-23T07:01:07.654Z,99.99
2018-12-23T07:02:07.643Z,99.99
2018-12-23T07:03:07.632Z,99.99
2018-12-23T07:04:07.622Z,99.99
2018-12-23T07:05:07.620Z,99.99
2018-12-23T07:06:07.605Z,99.99
2018-12-23T07:07:07.590Z,99.99
2018-12-23T07:08:07.574Z,99.99
2018-12-23T07:09:07.571Z,99.99
2018-12-23T07:10:07.556Z,99.99
2018-12-23T07:11:07.566Z,99.99
2018-12-23T07:12:07.538Z,99.99
2018-12-23T07:13:07.523Z,99.99
2018-12-23T07:14:07.508Z,99.99
2018-12-23T07:15:07.505Z,99.99
2018-12-23T07:16:07.494Z,99.99
2018-12-23T07:17:07.484Z,99.99
2018-12-23T07:18:07.476Z,99.99
2018-12-23T07:19:07.456Z,99.99
2018-12-23T07:20:07.446Z,99.99
2018-12-23T07:21:07.448Z,99.99
2018-12-23T07:22:07.432Z,99.99
2018-12-23T07:23:07.429Z,99.99
2018-12-23T07:24:07.406Z,99.99
2018-12-23T07:25:07.399Z,99.99
2018-12-23T07:26:07.388Z,99.99
2018-12-23T07:27:07.370Z,99.99
2018-12-23T07:28:07.369Z,99.99
2018-12-23T07:29:07.349Z,99.99
2018-12-23T07:30:07.337Z,99.99
2018-12-23T07:31:07.336Z,99.99
2018-12-23T07:32:07.319Z,99.99
2018-12-23T07:33:07.302Z,99.99
2018-12-23T07:34:07.312Z,99.99
2018-12-23T07:35:07.288Z,99.99
2018-12-23T07:36:07.274Z,99.99
2018-12-23T07:37:07.266Z,99.99
2018-12-23T07:38:07.255Z,99.99
2018-12-23T07:39:07.248Z,99.99
2018-12-23T07:40:07.237Z,99.99
2018-12-23T07:41:07.228Z,99.99
2018-12-23T07:42:07.214Z,99.99
2018-12-23T07:43:07.202Z,99.99
2018-12-23T07:44:07.242Z,99.99
2018-12-23T07:45:07.181Z,99.99
2018-12-23T07:46:07.173Z,99.99
2018-12-23T07:47:07.176Z,99.99
2018-12-23T07:48:07.149Z,99.99
2018-12-23T07:49:07.135Z,99.99
2018-12-23T07:50:07.126Z,99.99
2018-12-23T07:51:07.116Z,99.99
2018-12-23T07:52:07.110Z,99.99
2018-12-23T07:53:07.096Z,99.99
2018-12-23T07:54:07.082Z,99.99
2018-12-23T07:55:07.077Z,99.99
2018-12-23T07:56:07.062Z,99.99
2018-12-23T07:57:07.078Z,99.99
2018-12-23T07:58:07.050Z,99.99
2018-12-23T07:59:07.034Z,99.99
2018-12-23T08:00:07.039Z,99.99
2018-12-23T08:01:07.013Z,99.99
2018-12-23T08:02:07.000Z,99.99
2018-12-23T08:03:06.995Z,99.99
2018-12-23T08:04:06.978Z,99.99
2018-12-23T08:05:06.977Z,99.99
2018-12-23T08:06:07.066Z,99.99
2018-12-23T08:07:06.952Z,99.99
2018-12-23T08:08:06.931Z,99.99
2018-12-23T08:09:06.933Z,99.99
2018-12-23T08:10:06.942Z,99.99
2018-12-23T08:11:06.903Z,99.99
2018-12-23T08:12:06.895Z,99.99
2018-12-23T08:13:07.009Z,99.99
2018-12-23T08:14:06.883Z,99.99
2018-12-23T08:15:06.880Z,99.99
2018-12-23T08:16:06.854Z,99.99
2018-12-23T08:17:06.841Z,99.99
2018-12-23T08:18:06.831Z,99.99
2018-12-23T08:19:06.815Z,99.99
2018-12-23T08:20:06.835Z,99.99
2018-12-23T08:21:06.800Z,99.99
2018-12-23T08:22:06.818Z,99.99
2018-12-23T08:23:06.775Z,99.99
2018-12-23T08:24:06.762Z,99.99
2018-12-23T08:25:06.756Z,99.99
2018-12-23T08:26:06.746Z,99.99
2018-12-23T08:27:06.737Z,99.99
2018-12-23T08:28:06.727Z,99.99
2018-12-23T08:29:06.720Z,99.99
2018-12-23T08:30:06.695Z,99.99
2018-12-23T08:31:06.699Z,99.99
2018-12-23T08:32:06.682Z,99.99
2018-12-23T08:33:06.689Z,99.99
2018-12-23T08:34:06.669Z,99.99
2018-12-23T08:35:06.643Z,99.99
2018-12-23T08:36:06.640Z,99.99
2018-12-23T08:37:06.631Z,99.99
2018-12-23T08:38:06.617Z,99.99
2018-12-23T08:39:06.607Z,99.99
2018-12-23T08:40:06.629Z,99.99
2018-12-23T08:41:06.590Z,99.99
2018-12-23T08:42:06.575Z,99.93
2018-12-23T08:43:06.583Z,99.72
2018-12-23T08:44:06.555Z,99.47
2018-12-23T08:45:06.550Z,99.68
2018-12-23T08:46:06.532Z,99.06
2018-12-23T08:47:06.521Z,99.26
2018-12-23T08:48:06.510Z,98.96
2018-12-23T08:49:06.497Z,98.44
2018-12-23T08:50:06.489Z,98.85
2018-12-23T08:51:06.490Z,99.06
2018-12-23T08:52:06.472Z,99.06
2018-12-23T08:53:06.459Z,99.16
2018-12-23T08:54:06.448Z,98.96
2018-12-23T08:55:06.444Z,99.16
2018-12-23T08:56:06.435Z,98.96
2018-12-23T08:57:06.422Z,99.16
2018-12-23T08:58:06.416Z,99.37
2018-12-23T08:59:06.396Z,98.96
2018-12-23T09:00:06.392Z,99.26
2018-12-23T09:01:06.371Z,98.65
2018-12-23T09:02:06.365Z,98.96
2018-12-23T09:03:06.358Z,98.50
2018-12-23T09:04:06.344Z,98.08
2018-12-23T09:05:06.334Z,97.88
2018-12-23T09:06:06.325Z,98.08
2018-12-23T09:07:06.317Z,97.63
2018-12-23T09:08:06.304Z,97.98
2018-12-23T09:09:06.304Z,97.36
2018-12-23T09:10:06.289Z,96.91
2018-12-23T09:11:06.265Z,97.31
2018-12-23T09:12:06.267Z,97.52
2018-12-23T09:13:06.244Z,97.88
2018-12-23T09:14:06.235Z,97.88
2018-12-23T09:15:06.239Z,98.29
2018-12-23T09:16:06.244Z,98.08
2018-12-23T09:17:06.203Z,98.29
2018-12-23T09:18:06.191Z,98.50
2018-12-23T09:19:06.200Z,98.19
2018-12-23T09:20:06.176Z,98.08
2018-12-23T09:21:06.166Z,97.56
2018-12-23T09:22:06.149Z,97.98
2018-12-23T09:23:06.141Z,97.88
2018-12-23T09:24:06.125Z,97.56
2018-12-23T09:25:06.117Z,97.88
2018-12-23T09:26:06.107Z,97.94
2018-12-23T09:27:06.096Z,97.11
2018-12-23T09:28:06.084Z,97.27
2018-12-23T09:29:06.075Z,96.45
2018-12-23T09:30:06.074Z,96.03
2018-12-23T09:31:06.054Z,95.83
2018-12-23T09:32:06.056Z,95.62
2018-12-23T09:33:06.039Z,95.83
2018-12-23T09:34:06.018Z,95.52
2018-12-23T09:35:06.020Z,95.83
2018-12-23T09:36:06.004Z,95.42
2018-12-23T09:37:05.990Z,95.10
2018-12-23T09:38:05.987Z,95.62
2018-12-23T09:39:05.973Z,95.83
2018-12-23T09:40:05.957Z,95.31
2018-12-23T09:41:05.946Z,94.76
2018-12-23T09:42:05.968Z,94.96
2018-12-23T09:43:05.923Z,95.68
2018-12-23T09:44:05.915Z,95.37
2018-12-23T09:45:05.899Z,95.52
2018-12-23T09:46:05.892Z,95.48
2018-12-23T09:47:05.883Z,95.42
2018-12-23T09:48:05.867Z,95.31
2018-12-23T09:49:05.854Z,95.00
2018-12-23T09:50:05.859Z,95.62
2018-12-23T09:51:05.838Z,95.42
2018-12-23T09:52:05.826Z,94.70
2018-12-23T09:53:05.813Z,94.59
2018-12-23T09:54:05.805Z,95.52
2018-12-23T09:55:05.798Z,95.42
2018-12-23T09:56:05.774Z,95.68
2018-12-23T09:57:05.778Z,95.78
2018-12-23T09:58:05.765Z,95.58
2018-12-23T09:59:05.748Z,94.45
2018-12-23T10:00:05.733Z,94.03
2018-12-23T10:01:05.721Z,94.45
2018-12-23T10:02:05.711Z,94.55
2018-12-23T10:03:05.705Z,94.38
2018-12-23T10:04:05.692Z,95.37
2018-12-23T10:05:05.692Z,95.62
2018-12-23T10:06:05.670Z,95.52
2018-12-23T10:07:05.663Z,95.42
2018-12-23T10:08:10.021Z,95.46
2018-12-23T10:09:05.638Z,95.52
2018-12-23T10:10:05.628Z,95.73
2018-12-23T10:11:05.623Z,96.70
2018-12-23T10:12:05.604Z,96.24
2018-12-23T10:13:05.613Z,96.24
2018-12-23T10:14:05.591Z,95.37
2018-12-23T10:15:05.583Z,94.76
2018-12-23T10:16:05.570Z,94.55
2018-12-23T10:17:05.556Z,95.06
2018-12-23T10:18:05.565Z,93.93
2018-12-23T10:19:05.534Z,94.51
2018-12-23T10:20:05.522Z,93.99
2018-12-23T10:21:05.509Z,93.99
2018-12-23T10:22:05.505Z,93.41
2018-12-23T10:23:05.490Z,93.37
2018-12-23T10:24:05.478Z,93.48
2018-12-23T10:25:05.466Z,93.62
2018-12-23T10:26:05.453Z,94.24
2018-12-23T10:27:05.449Z,93.52
2018-12-23T10:28:05.438Z,94.03
2018-12-23T10:29:05.436Z,94.38
2018-12-23T10:30:05.407Z,93.83
2018-12-23T10:31:05.434Z,93.93
2018-12-23T10:32:05.400Z,93.83
2018-12-23T10:33:05.380Z,93.56
2018-12-23T10:34:05.373Z,93.93
2018-12-23T10:35:05.356Z,94.28
2018-12-23T10:36:05.346Z,94.85
2018-12-23T10:37:05.337Z,94.76
2018-12-23T10:38:05.326Z,94.45
2018-12-23T10:39:05.316Z,93.66
2018-12-23T10:40:05.300Z,94.28
2018-12-23T10:41:05.300Z,94.55
2018-12-23T10:42:05.308Z,94.38
2018-12-23T10:43:05.266Z,94.55
2018-12-23T10:44:05.286Z,94.03
2018-12-23T10:45:05.246Z,93.52
2018-12-23T10:46:05.250Z,93.52
2018-12-23T10:47:05.241Z,93.41
2018-12-23T10:48:05.212Z,93.73
2018-12-23T10:49:05.210Z,93.21
2018-12-23T10:50:05.199Z,94.03
2018-12-23T10:51:05.176Z,93.41
2018-12-23T10:52:05.167Z,93.11
2018-12-23T10:53:05.165Z,93.52
2018-12-23T10:54:05.162Z,93.41
2018-12-23T10:55:05.137Z,92.90
2018-12-23T10:56:05.127Z,93.11
2018-12-23T10:57:05.110Z,92.18
2018-12-23T10:58:05.105Z,92.18
2018-12-23T10:59:05.093Z,92.59
2018-12-23T11:00:05.082Z,92.38
2018-12-23T11:01:05.070Z,92.65
2018-12-23T11:02:13.426Z,92.24
2018-12-23T11:03:06.050Z,92.03
2018-12-23T11:04:05.044Z,92.10
2018-12-23T11:05:05.033Z,91.42
2018-12-23T11:06:05.017Z,90.86
2018-12-23T11:07:05.024Z,90.69
2018-12-23T11:08:05.000Z,91.31
2018-12-23T11:09:04.986Z,91.93
2018-12-23T11:10:04.977Z,91.52
2018-12-23T11:11:04.967Z,91.62
2018-12-23T11:12:04.974Z,92.34
2018-12-23T11:13:04.946Z,92.34
2018-12-23T11:14:04.929Z,92.03
2018-12-23T11:15:04.916Z,91.93
2018-12-23T11:16:04.910Z,91.21
2018-12-23T11:17:04.908Z,90.90
2018-12-23T11:18:04.892Z,91.72
2018-12-23T11:19:04.878Z,91.93
2018-12-23T11:20:04.871Z,91.72
2018-12-23T11:21:04.857Z,92.18
2018-12-23T11:22:04.842Z,92.34
2018-12-23T11:23:04.832Z,92.76
2018-12-23T11:24:04.820Z,93.11
2018-12-23T11:25:04.810Z,93.31
2018-12-23T11:26:04.797Z,93.52
2018-12-23T11:27:04.787Z,93.41
2018-12-23T11:28:04.777Z,93.21
2018-12-23T11:29:04.766Z,93.93
2018-12-23T11:30:04.758Z,94.03
2018-12-23T11:31:04.741Z,93.93
2018-12-23T11:32:04.740Z,94.24
2018-12-23T11:33:04.726Z,95.06
2018-12-23T11:34:04.734Z,94.34
2018-12-23T11:35:04.699Z,94.45
2018-12-23T11:36:04.693Z,94.65
2018-12-23T11:37:04.689Z,95.27
2018-12-23T11:38:04.678Z,95.27
2018-12-23T11:39:04.660Z,94.76
2018-12-23T11:40:04.675Z,94.96
2018-12-23T11:41:04.634Z,94.76
2018-12-23T11:42:04.626Z,95.21
2018-12-23T11:43:04.625Z,94.85
2018-12-23T11:44:04.599Z,94.70
2018-12-23T11:45:04.599Z,94.65
2018-12-23T11:46:04.580Z,95.00
2018-12-23T11:47:04.626Z,95.37
2018-12-23T11:48:04.557Z,94.70
2018-12-23T11:49:04.556Z,94.49
2018-12-23T11:50:04.539Z,94.80
2018-12-23T11:51:06.703Z,94.90
2018-12-23T11:52:04.520Z,95.21
2018-12-23T11:53:04.524Z,94.59
2018-12-23T11:54:04.528Z,94.49
2018-12-23T11:55:04.498Z,95.00
2018-12-23T11:56:04.472Z,94.24
2018-12-23T11:57:04.461Z,94.70
2018-12-23T11:58:04.451Z,93.83
2018-12-23T11:59:04.441Z,94.70
2018-12-23T12:00:04.432Z,94.34
2018-12-23T12:01:04.425Z,94.45
2018-12-23T12:02:04.410Z,93.52
2018-12-23T12:03:04.395Z,93.31
2018-12-23T12:04:04.383Z,92.90
2018-12-23T12:05:04.373Z,92.90
2018-12-23T12:06:04.387Z,92.59
2018-12-23T12:07:04.350Z,92.38
2018-12-23T12:08:04.341Z,93.21
2018-12-23T12:09:07.129Z,93.52
2018-12-23T12:10:04.339Z,93.62
2018-12-23T12:11:04.310Z,92.90
2018-12-23T12:12:04.300Z,93.31
2018-12-23T12:13:04.288Z,93.52
2018-12-23T12:14:04.275Z,93.11
2018-12-23T12:15:04.270Z,93.11
2018-12-23T12:16:04.278Z,93.98
2018-12-23T12:17:04.239Z,93.93
2018-12-23T12:18:04.234Z,94.38
2018-12-23T12:19:04.217Z,94.38
2018-12-23T12:20:04.213Z,95.73
2018-12-23T12:21:04.198Z,95.83
2018-12-23T12:22:04.187Z,95.83
2018-12-23T12:23:04.175Z,95.52
2018-12-23T12:24:04.163Z,95.62
2018-12-23T12:25:04.162Z,95.52
2018-12-23T12:26:04.140Z,95.52
2018-12-23T12:27:04.130Z,95.83
2018-12-23T12:28:04.123Z,95.62
2018-12-23T12:29:04.126Z,95.83
2018-12-23T12:30:04.102Z,95.62
2018-12-23T12:31:04.088Z,95.52
2018-12-23T12:32:04.081Z,95.62
2018-12-23T12:33:04.067Z,95.62
2018-12-23T12:34:04.062Z,95.83
2018-12-23T12:35:04.050Z,95.73
2018-12-23T12:36:04.038Z,96.86
2018-12-23T12:37:04.024Z,95.83
2018-12-23T12:38:04.010Z,96.34
2018-12-23T12:39:04.008Z,95.83
2018-12-23T12:40:04.001Z,95.98
2018-12-23T12:41:03.979Z,95.83
2018-12-23T12:42:03.978Z,95.21
2018-12-23T12:43:03.958Z,95.42
2018-12-23T12:44:03.951Z,95.25
2018-12-23T12:45:03.932Z,95.56
2018-12-23T12:46:03.957Z,95.52
2018-12-23T12:47:03.915Z,95.93
2018-12-23T12:48:03.899Z,95.73
2018-12-23T12:49:03.900Z,95.42
2018-12-23T12:50:03.876Z,94.38
2018-12-23T12:51:03.874Z,94.80
2018-12-23T12:52:03.896Z,94.70